Nearby METAR Reports

 

KSJC - San Jose, California, USA
Distance from station: NE 9mi, 14km
Updated: Sun, 04-21-2024 3:53pm CDT
Few Clouds
Few Clouds
 Wind from N
Wind: N 9 mph , 15 km/h
Temperature: 77°F , 25°C
Dew Point: 55°F , 13°C
Humidity: 47%
Barometer: 29.99 inHg , 1015.6 hPa
Clouds: Few Clouds
Visibility: 10 miles , 16 km
Cloud details: Few Clouds 12000 ft
Few Clouds 20000 ft
2024/04/21 20:53 KSJC 212053Z 36008KT 10SM FEW120 FEW200 25/13 A2999 RMK AO2 SLP155 T02500128 58024
KNUQ - Moffett Nas/Mtn, California, USA
Distance from station: N 9mi, 14km
Updated: Sun, 04-21-2024 4:15pm CDT
Clear
Clear
 Wind from N
Wind: N 10 mph , 17 km/h
Temperature: 72°F , 22°C
Dew Point: 52°F , 11°C
Humidity: 50%
Barometer: 29.99 inHg , 1015.6 hPa
Clouds: Clear
Visibility: 10 miles , 16 km
2024/04/21 21:15 KNUQ 212115Z AUTO 35009KT 10SM CLR 22/11 A2999 RMK AO2
 
KPAO - Palo Alto, California, USA
Distance from station: NNW 14mi, 23km
Updated: Sun, 04-21-2024 3:47pm CDT
Clear
Clear
 Wind from N
Wind: N 9 mph , 15 km/h
Temperature: 70°F , 21°C
Dew Point: 57°F , 14°C
Humidity: 64%
Barometer: 30.01 inHg , 1016.3 hPa
Clouds: Clear
Visibility: 10 miles , 16 km
2024/04/21 20:47 KPAO 212047Z 35008KT 10SM SKC 21/14 A3001
KRHV - San Jose/Reid, California, USA
Distance from station: ENE 12mi, 19km
Updated: Sun, 04-21-2024 3:47pm CDT
Clear
Clear
 Wind from calm
Wind: Calm
Temperature: 77°F , 25°C
Dew Point: 54°F , 12°C
Humidity: 44%
Barometer: 30.00 inHg , 1015.9 hPa
Clouds: Clear
Visibility: 10 miles , 16 km
2024/04/21 20:47 KRHV 212047Z 00000KT 10SM SKC 25/12 A3000
 
KOAK - Oakland, California, USA
Distance from station: NNW 31mi, 50km
Updated: Sun, 04-21-2024 3:53pm CDT
Few Clouds
Few Clouds
 Wind from WNW
Wind: WNW 9 mph , 15 km/h
Temperature: 72°F , 22°C
Dew Point: 54°F , 12°C
Humidity: 53%
Barometer: 30.01 inHg , 1016.3 hPa
Clouds: Few Clouds
Visibility: 10 miles , 16 km
Cloud details: Few Clouds 18000 ft
2024/04/21 20:53 KOAK 212053Z 29008KT 10SM FEW180 22/12 A3001 RMK AO2 SLP161 T02220117 58026
KSQL - San Carlos Airpo, California, USA
Distance from station: NW 21mi, 34km
Updated: Sun, 04-21-2024 3:47pm CDT
Clear
Clear
 Wind from N
Wind: N 10 mph , 17 km/h
Temperature: 73°F , 23°C
Dew Point: 52°F , 11°C
Humidity: 47%
Barometer: 30.00 inHg , 1015.9 hPa
Clouds: Clear
Visibility: 10 miles , 16 km
2024/04/21 20:47 KSQL 212047Z 35009KT 10SM CLR 23/11 A3000
 
KSFO - San Francisco, California, USA
Distance from station: NW 30mi, 49km
Updated: Sun, 04-21-2024 3:56pm CDT
Few Clouds
Few Clouds
 Wind from WNW
Wind: WNW 14 mph , 22 km/h
Temperature: 72°F , 22°C
Dew Point: 54°F , 12°C
Humidity: 53%
Barometer: 30.00 inHg , 1015.9 hPa
Clouds: Few Clouds
Visibility: 10 miles , 16 km
Cloud details: Few Clouds 7000 ft
Few Clouds 20000 ft
2024/04/21 20:56 KSFO 212056Z 30012KT 10SM FEW070 FEW200 22/12 A3000 RMK AO2 SLP160 T02170117 58022
KE16 - San Martin, California, USA
Distance from station: ESE 27mi, 43km
Updated: Sun, 04-21-2024 4:15pm CDT
Clear
Clear
 Wind from NW
Wind: NW 8 mph , 13 km/h, Gust: 17 mph , 28 km/h
Temperature: 79°F , 26°C
Dew Point: 50°F , 10°C
Humidity: 37%
Barometer: 29.99 inHg , 1015.6 hPa
Clouds: Clear
Visibility: 10 miles , 16 km
2024/04/21 21:15 KE16 212115Z AUTO 32007G15KT 10SM CLR 26/10 A2999 RMK AO2 PWINO PNO
 
KWVI - Watsonville, California, USA
Distance from station: SSE 27mi, 44km
Updated: Sun, 04-21-2024 3:53pm CDT
Clear
Clear
 Wind from SSW
Wind: SSW 8 mph , 13 km/h
Temperature: 72°F , 22°C
Dew Point: 52°F , 11°C
Humidity: 50%
Barometer: 30.00 inHg , 1015.9 hPa
Clouds: Clear
Visibility: 10 miles , 16 km
2024/04/21 20:53 KWVI 212053Z AUTO 21007KT 10SM CLR 22/11 A3000 RMK AO2 SLP159 T02170111 56023
KHAF - Half Moon Bay, California, USA
Distance from station: WNW 31mi, 50km
Updated: Sun, 04-21-2024 4:15pm CDT
Mist, Clear
Mist, Clear
 Wind from NW
Wind: NW 14 mph , 22 km/h
Temperature: 59°F , 15°C
Dew Point: 55°F , 13°C
Humidity: 88%
Barometer: 30.03 inHg , 1016.9 hPa
Summary: Mist
Clouds: Clear
Visibility: 4 miles , 6 km
2024/04/21 21:15 KHAF 212115Z AUTO 32012KT 4SM BR CLR 15/13 A3003 RMK AO2
 
KHWD - Hayward, California, USA
Distance from station: N 28mi, 44km
Updated: Sun, 04-21-2024 3:54pm CDT
Clear
Clear
 Wind from W
Wind: W 8 mph , 13 km/h
Temperature: 73°F , 23°C
Dew Point: 54°F , 12°C
Humidity: 50%
Barometer: 29.99 inHg , 1015.6 hPa
Clouds: Clear
Visibility: 10 miles , 16 km
2024/04/21 20:54 KHWD 212054Z 27007KT 10SM CLR 23/12 A2999 RMK AO2 SLP166 T02330122 58024
KLVK - Livermore, California, USA
Distance from station: NNE 31mi, 51km
Updated: Sun, 04-21-2024 3:53pm CDT
Clear
Clear
 Wind from calm
Wind: Calm
Temperature: 79°F , 26°C
Dew Point: 54°F , 12°C
Humidity: 42%
Barometer: 29.99 inHg , 1015.6 hPa
Clouds: Clear
Visibility: 10 miles , 16 km
2024/04/21 20:53 KLVK 212053Z 00000KT 10SM CLR 26/12 A2999 RMK AO2 SLP151 T02560122 58025